createdAt,value
2019-03-26T00:00:44.179Z,8.17
2019-03-26T00:04:24.000Z,8.07
2019-03-26T00:07:18.726Z,8.11
2019-03-26T00:09:50.293Z,8.15
2019-03-26T00:12:27.421Z,8.19
2019-03-26T00:14:58.688Z,8.25
2019-03-26T00:17:30.897Z,8.32
2019-03-26T00:20:02.201Z,8.34
2019-03-26T00:23:52.347Z,8.33
2019-03-26T00:27:22.635Z,8.29
2019-03-26T00:31:16.639Z,8.27
2019-03-26T00:36:32.704Z,8.19
2019-03-26T00:39:06.256Z,8.15
2019-03-26T00:41:37.491Z,8.05
2019-03-26T00:44:08.788Z,7.98
2019-03-26T00:46:40.498Z,7.92
2019-03-26T00:49:12.959Z,7.91
2019-03-26T00:51:44.278Z,7.91
2019-03-26T00:54:15.481Z,7.92
2019-03-26T00:56:46.675Z,7.91
2019-03-26T00:59:18.733Z,7.92
2019-03-26T01:02:51.065Z,7.94
2019-03-26T01:05:41.554Z,7.97
2019-03-26T01:09:03.519Z,8.05
2019-03-26T01:12:14.573Z,8.11
2019-03-26T01:14:47.040Z,8.15
2019-03-26T01:17:21.487Z,8.19
2019-03-26T01:19:53.116Z,8.19
2019-03-26T01:29:59.410Z,8.19
2019-03-26T01:36:39.328Z,8.18
2019-03-26T01:40:01.263Z,8.21
2019-03-26T01:42:51.723Z,8.25
2019-03-26T01:46:18.402Z,8.32
2019-03-26T01:49:55.241Z,8.38
2019-03-26T01:52:26.405Z,8.43
2019-03-26T01:55:27.992Z,8.46
2019-03-26T01:58:50.115Z,8.47
2019-03-26T02:01:54.862Z,8.48
2019-03-26T02:05:19.681Z,8.52
2019-03-26T02:07:51.074Z,8.54
2019-03-26T02:10:23.059Z,8.57
2019-03-26T02:12:54.286Z,8.57
2019-03-26T02:15:36.812Z,8.58
2019-03-26T02:18:10.304Z,8.63
2019-03-26T02:20:43.480Z,8.68
2019-03-26T02:23:14.891Z,8.70
2019-03-26T02:26:28.135Z,8.70
2019-03-26T02:29:36.503Z,8.66
2019-03-26T02:32:21.290Z,8.59
2019-03-26T02:34:52.641Z,8.54
2019-03-26T02:37:23.932Z,8.53
2019-03-26T02:40:13.055Z,8.54
2019-03-26T02:46:38.980Z,8.55
2019-03-26T02:49:11.250Z,8.52
2019-03-26T02:51:42.387Z,8.56
2019-03-26T02:54:13.772Z,8.55
2019-03-26T02:56:50.628Z,8.57
2019-03-26T02:59:21.922Z,8.56
2019-03-26T03:01:53.237Z,8.52
2019-03-26T03:04:24.728Z,8.48
2019-03-26T03:07:13.921Z,8.39
2019-03-26T03:10:29.923Z,8.29
2019-03-26T03:13:02.717Z,8.22
2019-03-26T03:15:34.182Z,8.15
2019-03-26T03:18:06.383Z,8.13
2019-03-26T03:20:37.648Z,8.10
2019-03-26T03:23:09.168Z,8.07
2019-03-26T03:25:40.685Z,8.03
2019-03-26T03:28:38.444Z,8.00
2019-03-26T03:31:09.680Z,7.97
2019-03-26T03:33:40.862Z,7.93
2019-03-26T03:36:18.520Z,7.92
2019-03-26T03:38:49.683Z,7.87
2019-03-26T03:41:23.361Z,7.86
2019-03-26T03:43:54.505Z,7.83
2019-03-26T03:46:45.327Z,7.78
2019-03-26T03:49:23.122Z,7.73
2019-03-26T03:52:42.630Z,7.71
2019-03-26T03:56:08.247Z,7.65
2019-03-26T03:59:28.023Z,7.58
2019-03-26T04:03:13.176Z,7.56
2019-03-26T04:05:44.501Z,7.50
2019-03-26T04:08:17.865Z,7.49
2019-03-26T04:10:49.156Z,7.45
2019-03-26T04:13:30.412Z,7.44
2019-03-26T04:19:34.109Z,7.36
2019-03-26T04:22:05.264Z,7.33
2019-03-26T04:24:36.505Z,7.30
2019-03-26T04:27:40.568Z,7.28
2019-03-26T04:30:34.099Z,7.27
2019-03-26T04:33:29.149Z,7.25
2019-03-26T04:36:00.676Z,7.19
2019-03-26T04:38:31.825Z,7.16
2019-03-26T04:41:10.800Z,7.16
2019-03-26T04:43:51.560Z,7.15
2019-03-26T04:46:46.304Z,7.15
2019-03-26T04:49:17.560Z,7.10
2019-03-26T04:51:52.203Z,7.05
2019-03-26T04:54:55.567Z,7.02
2019-03-26T04:58:03.297Z,6.97
2019-03-26T05:00:56.531Z,6.99
2019-03-26T05:04:58.134Z,7.11
2019-03-26T05:08:02.254Z,7.21
2019-03-26T05:10:33.705Z,7.21
2019-03-26T05:13:05.479Z,7.16
2019-03-26T05:15:41.189Z,7.18
2019-03-26T05:18:24.592Z,7.24
2019-03-26T05:21:22.602Z,7.30
2019-03-26T05:24:12.201Z,7.38
2019-03-26T05:26:52.041Z,7.50
2019-03-26T05:29:39.457Z,7.57
2019-03-26T05:32:11.725Z,7.68
2019-03-26T05:34:48.494Z,7.73
2019-03-26T05:37:19.776Z,7.79
2019-03-26T05:40:24.059Z,7.82
2019-03-26T05:43:08.759Z,7.92
2019-03-26T05:46:25.670Z,8.01
2019-03-26T05:49:30.610Z,8.04
2019-03-26T05:52:04.009Z,8.06
2019-03-26T05:54:35.293Z,8.19
2019-03-26T05:57:07.423Z,8.43
2019-03-26T05:59:42.111Z,8.53
2019-03-26T06:02:17.867Z,8.59
2019-03-26T06:05:00.874Z,8.62
2019-03-26T06:08:38.700Z,8.67
2019-03-26T06:12:17.742Z,8.53
2019-03-26T06:15:24.957Z,8.54
2019-03-26T06:18:46.267Z,8.65
2019-03-26T06:25:27.077Z,8.69
2019-03-26T06:28:31.078Z,8.74
2019-03-26T06:31:33.050Z,8.82
2019-03-26T06:34:20.169Z,8.82
2019-03-26T06:36:55.281Z,8.89
2019-03-26T06:39:28.911Z,8.94
2019-03-26T06:42:00.202Z,9.08
2019-03-26T06:44:31.881Z,9.12
2019-03-26T06:47:03.311Z,9.17
2019-03-26T06:49:48.107Z,9.15
2019-03-26T06:52:36.362Z,9.05
2019-03-26T06:55:10.103Z,8.87
2019-03-26T06:57:41.827Z,8.81
2019-03-26T07:00:58.615Z,8.68
2019-03-26T07:04:20.344Z,8.57
2019-03-26T07:07:35.692Z,8.48
2019-03-26T07:18:08.271Z,8.58
2019-03-26T07:20:47.659Z,8.67
2019-03-26T07:23:45.389Z,8.72
2019-03-26T07:26:15.496Z,8.73
2019-03-26T07:28:53.183Z,8.67
2019-03-26T07:31:28.307Z,8.70
2019-03-26T07:33:59.619Z,8.70
2019-03-26T07:36:33.812Z,8.74
2019-03-26T07:39:05.966Z,8.81
2019-03-26T07:41:43.334Z,8.87
2019-03-26T07:44:22.090Z,8.83
2019-03-26T07:46:54.104Z,8.83
2019-03-26T07:49:35.125Z,8.85
2019-03-26T07:52:18.987Z,8.83
2019-03-26T07:54:50.548Z,8.89
2019-03-26T07:57:33.733Z,8.95
2019-03-26T08:00:14.952Z,8.92
2019-03-26T08:03:30.168Z,8.91
2019-03-26T08:06:50.086Z,8.89
2019-03-26T08:09:21.592Z,8.86
2019-03-26T08:11:57.888Z,8.97
2019-03-26T08:14:31.048Z,9.04
2019-03-26T08:17:11.215Z,9.02
2019-03-26T08:19:45.111Z,9.16
2019-03-26T08:22:16.959Z,9.26
2019-03-26T08:24:53.320Z,9.28
2019-03-26T08:27:27.621Z,9.34
2019-03-26T08:30:02.753Z,9.38
2019-03-26T08:32:37.123Z,9.49
2019-03-26T08:35:30.611Z,9.51
2019-03-26T08:38:12.830Z,9.49
2019-03-26T08:44:05.075Z,9.55
2019-03-26T08:46:57.381Z,9.84
2019-03-26T08:50:37.713Z,9.84
2019-03-26T08:53:40.649Z,9.93
2019-03-26T08:56:16.272Z,10.09
2019-03-26T09:02:01.179Z,10.21
2019-03-26T09:04:32.904Z,10.46
2019-03-26T09:07:05.554Z,10.70
2019-03-26T09:09:39.892Z,10.84
2019-03-26T09:12:45.165Z,10.82
2019-03-26T09:16:03.486Z,10.79
2019-03-26T09:18:35.194Z,10.69
2019-03-26T09:21:17.672Z,10.66
2019-03-26T09:23:52.070Z,10.80
2019-03-26T09:26:42.995Z,10.93
2019-03-26T09:29:35.758Z,10.96
2019-03-26T09:32:08.324Z,11.04
2019-03-26T09:34:39.992Z,10.94
2019-03-26T09:37:11.397Z,10.97
2019-03-26T09:39:42.824Z,10.95
2019-03-26T09:42:14.169Z,10.96
2019-03-26T09:44:47.523Z,10.99
2019-03-26T09:47:19.029Z,10.95
2019-03-26T09:49:50.442Z,10.81
2019-03-26T09:52:49.162Z,10.91
2019-03-26T09:56:00.552Z,11.43
2019-03-26T09:58:35.830Z,11.65
2019-03-26T10:01:12.846Z,11.78
2019-03-26T10:08:19.768Z,12.14
2019-03-26T10:11:25.519Z,12.28
2019-03-26T10:14:29.535Z,12.20
2019-03-26T10:25:40.464Z,11.72
2019-03-26T10:29:29.158Z,11.48
2019-03-26T10:31:47.839Z,11.50
2019-03-26T10:35:10.635Z,11.55
2019-03-26T10:37:48.306Z,11.83
2019-03-26T10:40:33.546Z,12.20
2019-03-26T10:43:06.396Z,12.51
2019-03-26T10:45:38.904Z,12.64
2019-03-26T10:48:15.471Z,12.77
2019-03-26T10:50:47.572Z,12.65
2019-03-26T10:53:18.929Z,12.68
2019-03-26T10:55:50.427Z,12.59
2019-03-26T10:58:24.341Z,12.50
2019-03-26T11:01:17.464Z,12.40
2019-03-26T11:03:52.091Z,12.13
2019-03-26T11:06:23.839Z,11.95
2019-03-26T11:09:32.894Z,11.81
2019-03-26T11:12:06.922Z,11.88
2019-03-26T11:14:43.608Z,11.98
2019-03-26T11:17:23.641Z,11.93
2019-03-26T11:20:31.825Z,12.08
2019-03-26T11:23:17.899Z,11.99
2019-03-26T11:26:11.955Z,11.86
2019-03-26T11:28:49.752Z,11.71
2019-03-26T11:31:33.071Z,11.55
2019-03-26T11:34:12.545Z,11.53
2019-03-26T11:37:21.983Z,11.78
2019-03-26T11:40:07.492Z,12.12
2019-03-26T11:42:42.480Z,12.37
2019-03-26T11:45:19.541Z,12.61
2019-03-26T11:47:51.604Z,12.79
2019-03-26T11:50:26.974Z,12.87
2019-03-26T11:53:11.368Z,12.87
2019-03-26T11:55:43.855Z,12.89
2019-03-26T11:58:30.351Z,12.86
2019-03-26T12:04:44.739Z,12.88
2019-03-26T12:08:22.163Z,13.09
2019-03-26T12:10:57.453Z,13.06
2019-03-26T12:13:58.671Z,12.96
2019-03-26T12:17:15.217Z,13.03
2019-03-26T12:20:47.319Z,12.97
2019-03-26T12:23:39.191Z,12.68
2019-03-26T12:26:11.856Z,12.65
2019-03-26T12:28:46.412Z,12.50
2019-03-26T12:32:03.534Z,12.53
2019-03-26T12:34:26.932Z,12.70
2019-03-26T12:36:58.617Z,12.86
2019-03-26T12:39:31.182Z,12.84
2019-03-26T12:42:03.160Z,12.90
2019-03-26T12:44:40.483Z,12.90
2019-03-26T12:47:14.049Z,12.73
2019-03-26T12:49:58.746Z,12.67
2019-03-26T12:57:08.349Z,12.67
2019-03-26T13:04:39.189Z,12.43
2019-03-26T13:07:46.226Z,12.62
2019-03-26T13:10:17.773Z,12.63
2019-03-26T13:12:52.315Z,12.71
2019-03-26T13:15:25.091Z,12.83
2019-03-26T13:18:26.440Z,12.97
2019-03-26T13:21:03.933Z,12.94
2019-03-26T13:23:41.048Z,12.88
2019-03-26T13:26:12.716Z,12.83
2019-03-26T13:28:44.430Z,12.82
2019-03-26T13:31:16.176Z,13.00
2019-03-26T13:33:58.988Z,13.10
2019-03-26T13:37:09.764Z,13.03
2019-03-26T13:40:34.924Z,12.99
2019-03-26T13:43:07.166Z,13.09
2019-03-26T13:46:42.300Z,13.19
2019-03-26T13:52:54.772Z,13.39
2019-03-26T13:56:06.869Z,13.44
2019-03-26T13:59:25.319Z,13.46
2019-03-26T14:03:18.749Z,13.43
2019-03-26T14:06:19.796Z,13.62
2019-03-26T14:09:43.386Z,13.93
2019-03-26T14:12:55.801Z,14.23
2019-03-26T14:16:16.117Z,14.18
2019-03-26T14:18:54.233Z,13.92
2019-03-26T14:21:31.695Z,13.90
2019-03-26T14:24:13.151Z,14.21
2019-03-26T14:27:04.590Z,14.62
2019-03-26T14:29:47.142Z,14.35
2019-03-26T14:33:04.511Z,13.96
2019-03-26T14:35:50.154Z,13.55
2019-03-26T14:38:54.753Z,13.26
2019-03-26T14:46:46.908Z,12.83
2019-03-26T14:55:21.996Z,12.62
2019-03-26T14:58:49.549Z,12.41
2019-03-26T15:02:33.667Z,12.43
2019-03-26T15:09:30.882Z,12.27
2019-03-26T15:12:56.491Z,12.24
2019-03-26T15:15:29.601Z,12.22
2019-03-26T15:18:01.198Z,12.16
2019-03-26T15:20:35.642Z,12.16
2019-03-26T15:23:06.738Z,12.20
2019-03-26T15:25:41.059Z,12.18
2019-03-26T15:28:12.872Z,12.14
2019-03-26T15:30:48.777Z,12.06
2019-03-26T15:33:20.569Z,12.00
2019-03-26T15:35:52.117Z,11.99
2019-03-26T15:38:23.541Z,11.95
2019-03-26T15:40:56.889Z,11.89
2019-03-26T15:43:28.336Z,11.84
2019-03-26T15:46:00.164Z,11.80
2019-03-26T15:48:31.832Z,11.78
2019-03-26T15:51:03.448Z,11.71
2019-03-26T15:53:38.143Z,11.70
2019-03-26T15:56:11.642Z,11.71
2019-03-26T15:58:44.764Z,11.68
2019-03-26T16:01:16.630Z,11.68
2019-03-26T16:03:49.555Z,11.69
2019-03-26T16:06:21.446Z,11.67
2019-03-26T16:09:26.133Z,11.78
2019-03-26T16:11:58.436Z,11.63
2019-03-26T16:15:51.843Z,11.62
2019-03-26T16:17:21.890Z,11.54
2019-03-26T16:19:59.558Z,11.49
2019-03-26T16:22:34.650Z,11.47
2019-03-26T16:25:06.925Z,11.44
2019-03-26T16:27:38.819Z,11.48
2019-03-26T16:30:18.362Z,11.50
2019-03-26T16:32:51.592Z,11.48
2019-03-26T16:35:25.849Z,11.48
2019-03-26T16:37:59.803Z,11.41
2019-03-26T16:40:32.769Z,11.37
2019-03-26T16:56:38.743Z,10.88
2019-03-26T17:08:22.575Z,10.26
2019-03-26T17:11:35.732Z,10.10
2019-03-26T17:17:21.677Z,9.96
2019-03-26T17:20:07.439Z,9.99
2019-03-26T17:23:16.601Z,10.01
2019-03-26T17:27:13.154Z,10.08
2019-03-26T17:29:36.938Z,10.11
2019-03-26T17:32:15.712Z,10.15
2019-03-26T17:34:46.749Z,10.18
2019-03-26T17:37:17.438Z,10.21
2019-03-26T17:39:50.361Z,10.19
2019-03-26T17:42:51.449Z,10.20
2019-03-26T17:45:26.173Z,10.17
2019-03-26T17:47:57.453Z,10.19
2019-03-26T17:50:28.810Z,10.26
2019-03-26T17:53:05.160Z,10.31
2019-03-26T17:55:41.933Z,10.36
2019-03-26T17:58:15.522Z,10.34
2019-03-26T18:00:53.685Z,10.35
2019-03-26T18:03:27.020Z,10.32
2019-03-26T18:06:02.522Z,10.36
2019-03-26T18:08:43.044Z,10.37
2019-03-26T18:11:18.151Z,10.39
2019-03-26T18:13:53.341Z,10.42
2019-03-26T18:16:28.070Z,10.48
2019-03-26T18:19:02.456Z,10.50
2019-03-26T18:21:50.337Z,10.51
2019-03-26T18:24:10.174Z,10.52
2019-03-26T18:26:47.272Z,10.57
2019-03-26T18:29:24.989Z,10.59
2019-03-26T18:31:56.652Z,10.58
2019-03-26T18:34:30.690Z,10.58
2019-03-26T18:37:09.036Z,10.59
2019-03-26T18:39:47.113Z,10.62
2019-03-26T18:42:19.375Z,10.66
2019-03-26T18:44:55.538Z,10.66
2019-03-26T18:47:33.492Z,10.64
2019-03-26T18:50:11.692Z,10.68
2019-03-26T18:52:43.387Z,10.66
2019-03-26T18:55:16.544Z,10.56
2019-03-26T18:57:57.808Z,10.57
2019-03-26T19:00:39.993Z,10.58
2019-03-26T19:03:11.556Z,10.53
2019-03-26T19:05:47.935Z,10.57
2019-03-26T19:08:23.082Z,10.58
2019-03-26T19:10:54.613Z,10.49
2019-03-26T19:13:26.285Z,10.39
2019-03-26T19:16:22.833Z,10.37
2019-03-26T19:18:59.614Z,10.34
2019-03-26T19:21:40.400Z,10.30
2019-03-26T19:24:18.201Z,10.30
2019-03-26T19:26:56.923Z,10.30
2019-03-26T19:29:32.714Z,10.27
2019-03-26T19:32:03.928Z,10.25
2019-03-26T19:34:37.282Z,10.26
2019-03-26T19:37:12.017Z,10.32
2019-03-26T19:39:49.992Z,10.28
2019-03-26T19:42:33.160Z,10.21
2019-03-26T19:45:05.673Z,10.18
2019-03-26T19:47:42.480Z,10.21
2019-03-26T19:50:19.607Z,10.18
2019-03-26T19:52:54.399Z,10.12
2019-03-26T19:55:34.770Z,10.14
2019-03-26T19:58:11.426Z,10.14
2019-03-26T20:00:44.401Z,10.17
2019-03-26T20:03:28.394Z,10.15
2019-03-26T20:06:14.444Z,10.16
2019-03-26T20:08:51.916Z,10.18
2019-03-26T20:11:29.993Z,10.24
2019-03-26T20:14:19.563Z,10.24
2019-03-26T20:16:58.220Z,10.24
2019-03-26T20:19:39.947Z,10.25
2019-03-26T20:22:22.237Z,10.21
2019-03-26T20:25:18.502Z,10.20
2019-03-26T20:27:50.092Z,10.18
2019-03-26T20:30:22.613Z,10.19
2019-03-26T20:33:08.390Z,10.22
2019-03-26T20:35:40.205Z,10.18
2019-03-26T20:38:16.165Z,10.19
2019-03-26T20:40:50.534Z,10.20
2019-03-26T20:43:22.777Z,10.19
2019-03-26T20:45:59.044Z,10.16
2019-03-26T20:48:37.855Z,10.13
2019-03-26T20:51:13.420Z,10.10
2019-03-26T20:53:53.173Z,10.07
2019-03-26T20:56:28.393Z,10.11
2019-03-26T20:59:02.623Z,10.14
2019-03-26T21:01:48.743Z,10.10
2019-03-26T21:04:25.466Z,10.11
2019-03-26T21:07:08.450Z,10.12
2019-03-26T21:09:44.349Z,10.08
2019-03-26T21:12:22.712Z,10.07
2019-03-26T21:14:58.552Z,10.06
2019-03-26T21:17:32.657Z,10.08
2019-03-26T21:20:26.871Z,10.10
2019-03-26T21:23:14.419Z,10.15
2019-03-26T21:29:40.962Z,10.10
2019-03-26T21:32:41.224Z,10.08
2019-03-26T21:35:44.665Z,10.10
2019-03-26T21:38:21.275Z,10.09
2019-03-26T21:41:12.199Z,10.13
2019-03-26T21:44:12.595Z,10.14
2019-03-26T21:47:01.220Z,10.07
2019-03-26T21:49:56.330Z,10.05
2019-03-26T21:52:28.562Z,9.98
2019-03-26T21:55:04.117Z,9.96
2019-03-26T21:57:39.365Z,9.98
2019-03-26T22:00:15.025Z,9.99
2019-03-26T22:02:57.315Z,9.98
2019-03-26T22:05:31.420Z,9.96
2019-03-26T22:08:12.745Z,9.94
2019-03-26T22:10:55.313Z,9.95
2019-03-26T22:13:27.083Z,9.95
2019-03-26T22:16:02.099Z,9.97
2019-03-26T22:18:46.550Z,9.96
2019-03-26T22:21:37.495Z,9.93
2019-03-26T22:24:19.697Z,9.95
2019-03-26T22:27:03.027Z,9.98
2019-03-26T22:29:50.679Z,10.03
2019-03-26T22:35:57.008Z,9.90
2019-03-26T22:38:36.529Z,9.91
2019-03-26T22:41:18.805Z,9.96
2019-03-26T22:43:55.400Z,10.01
2019-03-26T22:50:22.382Z,10.00
2019-03-26T22:53:03.107Z,9.99
2019-03-26T22:55:57.430Z,10.04
2019-03-26T22:59:07.373Z,10.02
2019-03-26T23:02:21.746Z,9.97
2019-03-26T23:05:41.863Z,9.91
2019-03-26T23:08:16.054Z,9.89
2019-03-26T23:10:53.348Z,9.82
2019-03-26T23:13:52.728Z,9.73
2019-03-26T23:16:53.869Z,9.72
2019-03-26T23:19:56.994Z,9.69
2019-03-26T23:22:47.314Z,9.59
2019-03-26T23:25:25.178Z,9.50
2019-03-26T23:28:01.241Z,9.49
2019-03-26T23:30:34.710Z,9.50
2019-03-26T23:33:09.063Z,9.54
2019-03-26T23:35:49.391Z,9.54
2019-03-26T23:38:27.350Z,9.52
2019-03-26T23:41:04.331Z,9.55
2019-03-26T23:43:43.897Z,9.59
2019-03-26T23:46:18.311Z,9.54
2019-03-26T23:48:53.215Z,9.52
2019-03-26T23:51:28.088Z,9.52
2019-03-26T23:54:28.081Z,9.54
2019-03-26T23:57:17.091Z,9.54
2019-03-26T23:59:49.354Z,9.63
